sensor_id;sensor_type;location;lat;lon;timestamp;temperature;humidity
25504;DHT22;13410;52.114;5.718;2022-08-04T00:01:52;25.90;99.90
25504;DHT22;13410;52.114;5.718;2022-08-04T00:04:48;25.70;99.90
25504;DHT22;13410;52.114;5.718;2022-08-04T00:07:39;25.80;99.90
25504;DHT22;13410;52.114;5.718;2022-08-04T00:10:07;25.70;99.90
25504;DHT22;13410;52.114;5.718;2022-08-04T00:12:36;25.70;99.90
25504;DHT22;13410;52.114;5.718;2022-08-04T00:15:04;25.70;99.90
25504;DHT22;13410;52.114;5.718;2022-08-04T00:17:37;25.60;99.90
25504;DHT22;13410;52.114;5.718;2022-08-04T00:20:04;25.80;99.90
25504;DHT22;13410;52.114;5.718;2022-08-04T00:22:31;25.80;99.90
25504;DHT22;13410;52.114;5.718;2022-08-04T00:25:01;25.80;99.90
25504;DHT22;13410;52.114;5.718;2022-08-04T00:27:28;25.90;99.90
25504;DHT22;13410;52.114;5.718;2022-08-04T00:29:55;25.80;99.90
25504;DHT22;13410;52.114;5.718;2022-08-04T00:32:21;25.90;99.90
25504;DHT22;13410;52.114;5.718;2022-08-04T00:34:47;25.60;99.90
25504;DHT22;13410;52.114;5.718;2022-08-04T00:37:13;25.60;99.90
25504;DHT22;13410;52.114;5.718;2022-08-04T00:39:39;25.70;99.90
25504;DHT22;13410;52.114;5.718;2022-08-04T00:42:41;25.70;99.90
25504;DHT22;13410;52.114;5.718;2022-08-04T00:50:56;25.60;99.90
25504;DHT22;13410;52.114;5.718;2022-08-04T00:53:42;25.80;99.90
25504;DHT22;13410;52.114;5.718;2022-08-04T00:56:28;25.70;99.90
25504;DHT22;13410;52.114;5.718;2022-08-04T01:04:41;25.50;99.90
25504;DHT22;13410;52.114;5.718;2022-08-04T01:10:04;25.60;99.90
25504;DHT22;13410;52.114;5.718;2022-08-04T01:15:21;25.30;99.90
25504;DHT22;13410;52.114;5.718;2022-08-04T01:17:58;25.30;99.90
25504;DHT22;13410;52.114;5.718;2022-08-04T01:20:33;25.30;99.90
25504;DHT22;13410;52.114;5.718;2022-08-04T01:29:02;25.30;99.90
25504;DHT22;13410;52.114;5.718;2022-08-04T01:31:53;25.10;99.90
25504;DHT22;13410;52.114;5.718;2022-08-04T01:34:22;25.10;99.90
25504;DHT22;13410;52.114;5.718;2022-08-04T01:37:14;25.20;99.90
25504;DHT22;13410;52.114;5.718;2022-08-04T01:39:49;25.20;99.90
25504;DHT22;13410;52.114;5.718;2022-08-04T01:42:19;25.10;99.90
25504;DHT22;13410;52.114;5.718;2022-08-04T01:44:47;25.10;99.90
25504;DHT22;13410;52.114;5.718;2022-08-04T01:47:13;25.10;99.90
25504;DHT22;13410;52.114;5.718;2022-08-04T01:49:42;25.00;99.90
25504;DHT22;13410;52.114;5.718;2022-08-04T01:52:15;24.90;99.90
25504;DHT22;13410;52.114;5.718;2022-08-04T01:54:41;25.10;99.90
25504;DHT22;13410;52.114;5.718;2022-08-04T01:57:11;25.00;99.90
25504;DHT22;13410;52.114;5.718;2022-08-04T01:59:39;24.80;99.90
25504;DHT22;13410;52.114;5.718;2022-08-04T02:02:08;24.80;99.90
25504;DHT22;13410;52.114;5.718;2022-08-04T02:04:34;24.70;99.90
25504;DHT22;13410;52.114;5.718;2022-08-04T02:07:31;24.60;99.90
25504;DHT22;13410;52.114;5.718;2022-08-04T02:10:23;24.70;99.90
25504;DHT22;13410;52.114;5.718;2022-08-04T02:15:41;24.80;99.90
25504;DHT22;13410;52.114;5.718;2022-08-04T02:18:22;25.00;99.90
25504;DHT22;13410;52.114;5.718;2022-08-04T02:20:56;24.70;99.90
25504;DHT22;13410;52.114;5.718;2022-08-04T02:23:30;24.70;99.90
25504;DHT22;13410;52.114;5.718;2022-08-04T02:26:11;24.80;99.90
25504;DHT22;13410;52.114;5.718;2022-08-04T02:36:47;24.70;99.90
25504;DHT22;13410;52.114;5.718;2022-08-04T02:39:18;24.80;99.90
25504;DHT22;13410;52.114;5.718;2022-08-04T02:41:46;24.90;99.90
25504;DHT22;13410;52.114;5.718;2022-08-04T02:44:13;24.90;99.90
25504;DHT22;13410;52.114;5.718;2022-08-04T02:46:42;24.60;99.90
25504;DHT22;13410;52.114;5.718;2022-08-04T02:49:09;24.60;99.90
25504;DHT22;13410;52.114;5.718;2022-08-04T02:51:44;24.70;99.90
25504;DHT22;13410;52.114;5.718;2022-08-04T02:54:10;24.60;99.90
25504;DHT22;13410;52.114;5.718;2022-08-04T02:56:38;24.50;99.90
25504;DHT22;13410;52.114;5.718;2022-08-04T02:59:10;24.60;99.90
25504;DHT22;13410;52.114;5.718;2022-08-04T03:01:37;24.60;99.90
25504;DHT22;13410;52.114;5.718;2022-08-04T03:04:12;24.60;99.90
25504;DHT22;13410;52.114;5.718;2022-08-04T03:06:52;24.50;99.90
25504;DHT22;13410;52.114;5.718;2022-08-04T03:15:28;24.50;99.90
25504;DHT22;13410;52.114;5.718;2022-08-04T03:18:23;24.50;99.90
25504;DHT22;13410;52.114;5.718;2022-08-04T03:32:48;24.30;99.90
25504;DHT22;13410;52.114;5.718;2022-08-04T03:41:14;24.40;99.90
25504;DHT22;13410;52.114;5.718;2022-08-04T03:55:57;24.00;99.90
25504;DHT22;13410;52.114;5.718;2022-08-04T03:59:02;23.90;99.90
25504;DHT22;13410;52.114;5.718;2022-08-04T04:01:43;24.00;99.90
25504;DHT22;13410;52.114;5.718;2022-08-04T04:09:53;24.20;99.90
25504;DHT22;13410;52.114;5.718;2022-08-04T04:13:05;23.90;99.90
25504;DHT22;13410;52.114;5.718;2022-08-04T04:21:38;24.00;99.90
25504;DHT22;13410;52.114;5.718;2022-08-04T04:32:20;24.60;99.90
25504;DHT22;13410;52.114;5.718;2022-08-04T04:43:36;25.00;99.90
25504;DHT22;13410;52.114;5.718;2022-08-04T04:46:15;25.10;99.90
25504;DHT22;13410;52.114;5.718;2022-08-04T04:48:52;25.50;99.90
25504;DHT22;13410;52.114;5.718;2022-08-04T04:51:42;25.90;99.90
25504;DHT22;13410;52.114;5.718;2022-08-04T04:59:51;27.30;99.90
25504;DHT22;13410;52.114;5.718;2022-08-04T05:02:42;27.90;99.90
25504;DHT22;13410;52.114;5.718;2022-08-04T05:10:57;28.40;99.90
25504;DHT22;13410;52.114;5.718;2022-08-04T05:15:55;28.60;99.90
25504;DHT22;13410;52.114;5.718;2022-08-04T05:18:30;28.70;99.90
25504;DHT22;13410;52.114;5.718;2022-08-04T05:21:18;29.10;99.90
25504;DHT22;13410;52.114;5.718;2022-08-04T05:23:48;29.30;99.90
25504;DHT22;13410;52.114;5.718;2022-08-04T05:26:18;29.60;99.90
25504;DHT22;13410;52.114;5.718;2022-08-04T05:28:51;29.80;99.90
25504;DHT22;13410;52.114;5.718;2022-08-04T05:31:21;30.00;99.90
25504;DHT22;13410;52.114;5.718;2022-08-04T05:34:01;29.90;99.90
25504;DHT22;13410;52.114;5.718;2022-08-04T05:36:35;30.10;99.90
25504;DHT22;13410;52.114;5.718;2022-08-04T05:39:02;30.00;99.90
25504;DHT22;13410;52.114;5.718;2022-08-04T05:41:32;30.00;99.90
25504;DHT22;13410;52.114;5.718;2022-08-04T05:43:59;29.90;99.90
25504;DHT22;13410;52.114;5.718;2022-08-04T05:46:26;29.90;99.90
25504;DHT22;13410;52.114;5.718;2022-08-04T05:48:52;30.10;99.90
25504;DHT22;13410;52.114;5.718;2022-08-04T05:51:18;30.30;99.90
25504;DHT22;13410;52.114;5.718;2022-08-04T05:53:44;30.40;99.90
25504;DHT22;13410;52.114;5.718;2022-08-04T05:56:13;30.70;99.90
25504;DHT22;13410;52.114;5.718;2022-08-04T05:58:40;30.90;99.90
25504;DHT22;13410;52.114;5.718;2022-08-04T06:01:08;31.00;99.90
25504;DHT22;13410;52.114;5.718;2022-08-04T06:03:36;31.10;99.90
25504;DHT22;13410;52.114;5.718;2022-08-04T06:06:03;31.00;99.90
25504;DHT22;13410;52.114;5.718;2022-08-04T06:08:29;31.00;99.90
25504;DHT22;13410;52.114;5.718;2022-08-04T06:10:58;31.10;99.90
25504;DHT22;13410;52.114;5.718;2022-08-04T06:13:32;31.20;99.90
25504;DHT22;13410;52.114;5.718;2022-08-04T06:16:01;31.20;99.90
25504;DHT22;13410;52.114;5.718;2022-08-04T06:18:30;31.30;99.90
25504;DHT22;13410;52.114;5.718;2022-08-04T06:20:57;31.20;99.90
25504;DHT22;13410;52.114;5.718;2022-08-04T06:23:28;31.10;99.90
25504;DHT22;13410;52.114;5.718;2022-08-04T06:25:57;31.30;99.90
25504;DHT22;13410;52.114;5.718;2022-08-04T06:28:23;31.30;99.90
25504;DHT22;13410;52.114;5.718;2022-08-04T06:30:51;31.10;99.90
25504;DHT22;13410;52.114;5.718;2022-08-04T06:33:20;31.20;99.90
25504;DHT22;13410;52.114;5.718;2022-08-04T06:35:57;31.40;99.90
25504;DHT22;13410;52.114;5.718;2022-08-04T06:38:25;31.70;99.90
25504;DHT22;13410;52.114;5.718;2022-08-04T06:40:52;31.90;99.90
25504;DHT22;13410;52.114;5.718;2022-08-04T06:43:19;32.30;99.90
25504;DHT22;13410;52.114;5.718;2022-08-04T06:45:46;32.30;99.90
25504;DHT22;13410;52.114;5.718;2022-08-04T06:48:14;32.40;99.90
25504;DHT22;13410;52.114;5.718;2022-08-04T06:50:43;32.60;99.90
25504;DHT22;13410;52.114;5.718;2022-08-04T06:53:10;32.60;99.90
25504;DHT22;13410;52.114;5.718;2022-08-04T06:55:36;32.40;99.90
25504;DHT22;13410;52.114;5.718;2022-08-04T06:58:02;32.30;99.90
25504;DHT22;13410;52.114;5.718;2022-08-04T07:00:30;32.20;99.90
25504;DHT22;13410;52.114;5.718;2022-08-04T07:02:56;32.30;99.90
25504;DHT22;13410;52.114;5.718;2022-08-04T07:05:23;32.30;99.90
25504;DHT22;13410;52.114;5.718;2022-08-04T07:07:48;32.10;99.90
25504;DHT22;13410;52.114;5.718;2022-08-04T07:10:14;32.30;99.90
25504;DHT22;13410;52.114;5.718;2022-08-04T07:12:42;32.20;99.90
25504;DHT22;13410;52.114;5.718;2022-08-04T07:15:09;32.30;99.90
25504;DHT22;13410;52.114;5.718;2022-08-04T07:17:36;32.40;99.90
25504;DHT22;13410;52.114;5.718;2022-08-04T07:20:04;32.30;99.90
25504;DHT22;13410;52.114;5.718;2022-08-04T07:22:30;32.10;99.90
25504;DHT22;13410;52.114;5.718;2022-08-04T07:24:57;32.10;99.90
25504;DHT22;13410;52.114;5.718;2022-08-04T07:27:23;31.80;99.90
25504;DHT22;13410;52.114;5.718;2022-08-04T07:29:50;32.00;99.90
25504;DHT22;13410;52.114;5.718;2022-08-04T07:32:18;31.80;99.90
25504;DHT22;13410;52.114;5.718;2022-08-04T07:34:44;31.90;99.90
25504;DHT22;13410;52.114;5.718;2022-08-04T07:37:11;31.60;99.90
25504;DHT22;13410;52.114;5.718;2022-08-04T07:39:37;31.90;99.90
25504;DHT22;13410;52.114;5.718;2022-08-04T07:42:03;32.10;99.90
25504;DHT22;13410;52.114;5.718;2022-08-04T07:44:33;31.90;99.90
25504;DHT22;13410;52.114;5.718;2022-08-04T07:47:01;31.90;99.90
25504;DHT22;13410;52.114;5.718;2022-08-04T07:49:27;32.10;99.90
25504;DHT22;13410;52.114;5.718;2022-08-04T07:51:53;31.50;99.90
25504;DHT22;13410;52.114;5.718;2022-08-04T07:54:19;31.70;99.90
25504;DHT22;13410;52.114;5.718;2022-08-04T07:56:45;31.80;99.90
25504;DHT22;13410;52.114;5.718;2022-08-04T07:59:14;32.20;99.90
25504;DHT22;13410;52.114;5.718;2022-08-04T08:01:40;32.40;99.90
25504;DHT22;13410;52.114;5.718;2022-08-04T08:04:06;32.50;99.90
25504;DHT22;13410;52.114;5.718;2022-08-04T08:06:35;32.30;99.90
25504;DHT22;13410;52.114;5.718;2022-08-04T08:09:07;31.70;99.90
25504;DHT22;13410;52.114;5.718;2022-08-04T08:11:33;31.00;99.90
25504;DHT22;13410;52.114;5.718;2022-08-04T08:13:59;31.00;99.90
25504;DHT22;13410;52.114;5.718;2022-08-04T08:16:26;31.30;99.90
25504;DHT22;13410;52.114;5.718;2022-08-04T08:18:53;31.70;99.90
25504;DHT22;13410;52.114;5.718;2022-08-04T08:21:20;31.70;99.90
25504;DHT22;13410;52.114;5.718;2022-08-04T08:23:46;31.90;99.90
25504;DHT22;13410;52.114;5.718;2022-08-04T08:26:11;32.00;99.90
25504;DHT22;13410;52.114;5.718;2022-08-04T08:28:37;31.40;99.90
25504;DHT22;13410;52.114;5.718;2022-08-04T08:31:04;31.30;99.90
25504;DHT22;13410;52.114;5.718;2022-08-04T08:33:30;31.50;99.90
25504;DHT22;13410;52.114;5.718;2022-08-04T08:36:24;31.50;99.90
25504;DHT22;13410;52.114;5.718;2022-08-04T08:39:13;31.70;99.90
25504;DHT22;13410;52.114;5.718;2022-08-04T08:53:12;32.30;99.90
25504;DHT22;13410;52.114;5.718;2022-08-04T08:56:37;31.80;99.90
25504;DHT22;13410;52.114;5.718;2022-08-04T09:02:19;31.20;99.90
25504;DHT22;13410;52.114;5.718;2022-08-04T09:07:47;31.00;99.90
25504;DHT22;13410;52.114;5.718;2022-08-04T09:10:19;31.20;99.90
25504;DHT22;13410;52.114;5.718;2022-08-04T09:12:58;31.60;99.90
25504;DHT22;13410;52.114;5.718;2022-08-04T09:21:48;32.20;99.90
25504;DHT22;13410;52.114;5.718;2022-08-04T09:27:02;33.10;99.90
25504;DHT22;13410;52.114;5.718;2022-08-04T09:35:39;33.50;99.90
25504;DHT22;13410;52.114;5.718;2022-08-04T09:46:39;33.10;99.90
25504;DHT22;13410;52.114;5.718;2022-08-04T09:49:26;32.20;99.90
25504;DHT22;13410;52.114;5.718;2022-08-04T09:52:22;31.60;99.90
25504;DHT22;13410;52.114;5.718;2022-08-04T09:55:04;31.40;99.90
25504;DHT22;13410;52.114;5.718;2022-08-04T10:00:09;31.50;99.90
25504;DHT22;13410;52.114;5.718;2022-08-04T10:02:37;31.80;99.90
25504;DHT22;13410;52.114;5.718;2022-08-04T10:05:08;31.50;99.90
25504;DHT22;13410;52.114;5.718;2022-08-04T10:21:35;30.40;99.90
25504;DHT22;13410;52.114;5.718;2022-08-04T10:27:04;30.60;99.90
25504;DHT22;13410;52.114;5.718;2022-08-04T10:29:45;30.30;99.90
25504;DHT22;13410;52.114;5.718;2022-08-04T10:32:43;30.30;99.90
25504;DHT22;13410;52.114;5.718;2022-08-04T10:35:10;30.50;99.90
25504;DHT22;13410;52.114;5.718;2022-08-04T10:45:55;30.50;99.90
25504;DHT22;13410;52.114;5.718;2022-08-04T10:48:46;30.70;99.90
25504;DHT22;13410;52.114;5.718;2022-08-04T10:51:46;30.80;99.90
25504;DHT22;13410;52.114;5.718;2022-08-04T10:57:13;31.10;99.90
25504;DHT22;13410;52.114;5.718;2022-08-04T10:59:57;31.40;99.90
25504;DHT22;13410;52.114;5.718;2022-08-04T11:02:44;31.50;99.90
25504;DHT22;13410;52.114;5.718;2022-08-04T11:05:51;31.70;99.90
25504;DHT22;13410;52.114;5.718;2022-08-04T11:08:25;31.60;99.90
25504;DHT22;13410;52.114;5.718;2022-08-04T11:13:43;31.00;99.90
25504;DHT22;13410;52.114;5.718;2022-08-04T11:16:16;31.20;99.90
25504;DHT22;13410;52.114;5.718;2022-08-04T11:19:00;31.30;99.90
25504;DHT22;13410;52.114;5.718;2022-08-04T11:21:33;31.30;99.90
25504;DHT22;13410;52.114;5.718;2022-08-04T11:24:37;31.60;99.90
25504;DHT22;13410;52.114;5.718;2022-08-04T11:32:31;31.50;99.90
25504;DHT22;13410;52.114;5.718;2022-08-04T11:35:01;31.00;99.90
25504;DHT22;13410;52.114;5.718;2022-08-04T11:38:01;30.40;99.90
25504;DHT22;13410;52.114;5.718;2022-08-04T11:40:36;30.00;99.90
25504;DHT22;13410;52.114;5.718;2022-08-04T11:43:18;29.50;99.90
25504;DHT22;13410;52.114;5.718;2022-08-04T11:45:53;29.50;99.90
25504;DHT22;13410;52.114;5.718;2022-08-04T11:48:27;29.40;99.90
25504;DHT22;13410;52.114;5.718;2022-08-04T11:50:54;29.50;99.90
25504;DHT22;13410;52.114;5.718;2022-08-04T11:53:24;29.90;99.90
25504;DHT22;13410;52.114;5.718;2022-08-04T11:55:53;30.10;99.90
25504;DHT22;13410;52.114;5.718;2022-08-04T11:58:20;30.10;99.90
25504;DHT22;13410;52.114;5.718;2022-08-04T12:03:38;29.00;99.90
25504;DHT22;13410;52.114;5.718;2022-08-04T12:09:01;28.50;99.90
25504;DHT22;13410;52.114;5.718;2022-08-04T12:11:42;28.30;99.90
25504;DHT22;13410;52.114;5.718;2022-08-04T12:17:17;28.20;99.90
25504;DHT22;13410;52.114;5.718;2022-08-04T12:19:56;27.80;99.90
25504;DHT22;13410;52.114;5.718;2022-08-04T12:22:24;27.60;99.90
25504;DHT22;13410;52.114;5.718;2022-08-04T12:25:10;27.50;99.90
25504;DHT22;13410;52.114;5.718;2022-08-04T12:28:04;27.50;99.90
25504;DHT22;13410;52.114;5.718;2022-08-04T12:30:35;27.50;99.90
25504;DHT22;13410;52.114;5.718;2022-08-04T12:33:09;27.20;99.90
25504;DHT22;13410;52.114;5.718;2022-08-04T12:35:54;27.50;99.90
25504;DHT22;13410;52.114;5.718;2022-08-04T12:38:26;27.60;99.90
25504;DHT22;13410;52.114;5.718;2022-08-04T12:40:58;28.10;99.90
25504;DHT22;13410;52.114;5.718;2022-08-04T12:43:40;28.40;99.90
25504;DHT22;13410;52.114;5.718;2022-08-04T12:46:11;28.80;99.90
25504;DHT22;13410;52.114;5.718;2022-08-04T12:48:39;28.80;99.90
25504;DHT22;13410;52.114;5.718;2022-08-04T12:51:09;28.40;99.90
25504;DHT22;13410;52.114;5.718;2022-08-04T12:53:38;28.20;99.90
25504;DHT22;13410;52.114;5.718;2022-08-04T12:56:06;28.40;99.90
25504;DHT22;13410;52.114;5.718;2022-08-04T12:58:44;28.60;99.90
25504;DHT22;13410;52.114;5.718;2022-08-04T13:01:17;28.90;99.90
25504;DHT22;13410;52.114;5.718;2022-08-04T13:03:49;28.80;99.90
25504;DHT22;13410;52.114;5.718;2022-08-04T13:06:23;28.90;99.90
25504;DHT22;13410;52.114;5.718;2022-08-04T13:08:49;29.30;99.90
25504;DHT22;13410;52.114;5.718;2022-08-04T13:11:15;29.20;99.90
25504;DHT22;13410;52.114;5.718;2022-08-04T13:13:43;29.30;99.90
25504;DHT22;13410;52.114;5.718;2022-08-04T13:16:10;29.20;99.90
25504;DHT22;13410;52.114;5.718;2022-08-04T13:18:45;29.20;99.90
25504;DHT22;13410;52.114;5.718;2022-08-04T13:21:19;29.50;99.90
25504;DHT22;13410;52.114;5.718;2022-08-04T13:23:46;29.50;99.90
25504;DHT22;13410;52.114;5.718;2022-08-04T13:26:16;29.80;99.90
25504;DHT22;13410;52.114;5.718;2022-08-04T13:28:44;30.00;99.90
25504;DHT22;13410;52.114;5.718;2022-08-04T13:31:13;29.70;99.90
25504;DHT22;13410;52.114;5.718;2022-08-04T13:33:42;29.90;99.90
25504;DHT22;13410;52.114;5.718;2022-08-04T13:36:09;30.10;99.90
25504;DHT22;13410;52.114;5.718;2022-08-04T13:38:54;30.20;99.90
25504;DHT22;13410;52.114;5.718;2022-08-04T13:41:21;30.10;99.90
25504;DHT22;13410;52.114;5.718;2022-08-04T13:43:52;30.00;99.90
25504;DHT22;13410;52.114;5.718;2022-08-04T13:46:21;29.50;99.90
25504;DHT22;13410;52.114;5.718;2022-08-04T13:48:48;29.20;99.90
25504;DHT22;13410;52.114;5.718;2022-08-04T13:51:16;29.30;99.90
25504;DHT22;13410;52.114;5.718;2022-08-04T13:53:42;28.90;99.90
25504;DHT22;13410;52.114;5.718;2022-08-04T13:56:09;28.90;99.90
25504;DHT22;13410;52.114;5.718;2022-08-04T13:58:43;29.00;99.90
25504;DHT22;13410;52.114;5.718;2022-08-04T14:01:19;28.80;99.90
25504;DHT22;13410;52.114;5.718;2022-08-04T14:06:31;29.70;99.90
25504;DHT22;13410;52.114;5.718;2022-08-04T14:09:17;29.90;99.90
25504;DHT22;13410;52.114;5.718;2022-08-04T14:14:24;29.50;99.90
25504;DHT22;13410;52.114;5.718;2022-08-04T14:17:10;29.80;99.90
25504;DHT22;13410;52.114;5.718;2022-08-04T14:19:57;29.80;99.90
25504;DHT22;13410;52.114;5.718;2022-08-04T14:25:08;29.90;99.90
25504;DHT22;13410;52.114;5.718;2022-08-04T14:27:55;30.00;99.90
25504;DHT22;13410;52.114;5.718;2022-08-04T14:30:33;30.00;99.90
25504;DHT22;13410;52.114;5.718;2022-08-04T14:33:07;30.00;99.90
25504;DHT22;13410;52.114;5.718;2022-08-04T14:35:34;30.10;99.90
25504;DHT22;13410;52.114;5.718;2022-08-04T14:38:07;30.20;99.90
25504;DHT22;13410;52.114;5.718;2022-08-04T14:40:37;30.20;99.90
25504;DHT22;13410;52.114;5.718;2022-08-04T14:43:04;29.80;99.90
25504;DHT22;13410;52.114;5.718;2022-08-04T14:45:37;29.70;99.90
25504;DHT22;13410;52.114;5.718;2022-08-04T14:48:21;29.90;99.90
25504;DHT22;13410;52.114;5.718;2022-08-04T14:50:48;29.90;99.90
25504;DHT22;13410;52.114;5.718;2022-08-04T14:53:16;29.50;99.90
25504;DHT22;13410;52.114;5.718;2022-08-04T14:55:50;29.50;99.90
25504;DHT22;13410;52.114;5.718;2022-08-04T15:00:47;29.10;99.90
25504;DHT22;13410;52.114;5.718;2022-08-04T15:03:13;29.20;99.90
25504;DHT22;13410;52.114;5.718;2022-08-04T15:05:41;29.50;99.90
25504;DHT22;13410;52.114;5.718;2022-08-04T15:08:08;29.30;99.90
25504;DHT22;13410;52.114;5.718;2022-08-04T15:10:34;29.10;99.90
25504;DHT22;13410;52.114;5.718;2022-08-04T15:13:01;29.10;99.90
25504;DHT22;13410;52.114;5.718;2022-08-04T15:15:28;29.10;99.90
25504;DHT22;13410;52.114;5.718;2022-08-04T15:17:54;29.40;99.90
25504;DHT22;13410;52.114;5.718;2022-08-04T15:20:21;29.60;99.90
25504;DHT22;13410;52.114;5.718;2022-08-04T15:22:47;30.00;99.90
25504;DHT22;13410;52.114;5.718;2022-08-04T15:25:14;29.70;99.90
25504;DHT22;13410;52.114;5.718;2022-08-04T15:27:40;29.50;99.90
25504;DHT22;13410;52.114;5.718;2022-08-04T15:30:08;29.70;99.90
25504;DHT22;13410;52.114;5.718;2022-08-04T15:32:42;29.30;99.90
25504;DHT22;13410;52.114;5.718;2022-08-04T15:35:17;29.30;99.90
25504;DHT22;13410;52.114;5.718;2022-08-04T15:43:39;29.30;99.90
25504;DHT22;13410;52.114;5.718;2022-08-04T15:46:08;28.90;99.90
25504;DHT22;13410;52.114;5.718;2022-08-04T15:48:34;28.80;99.90
25504;DHT22;13410;52.114;5.718;2022-08-04T15:51:01;28.40;99.90
25504;DHT22;13410;52.114;5.718;2022-08-04T15:53:31;28.50;99.90
25504;DHT22;13410;52.114;5.718;2022-08-04T15:55:57;28.50;99.90
25504;DHT22;13410;52.114;5.718;2022-08-04T15:58:23;28.70;99.90
25504;DHT22;13410;52.114;5.718;2022-08-04T16:16:29;28.30;99.90
25504;DHT22;13410;52.114;5.718;2022-08-04T16:21:46;27.60;99.90
25504;DHT22;13410;52.114;5.718;2022-08-04T16:24:18;28.10;99.90
25504;DHT22;13410;52.114;5.718;2022-08-04T16:26:52;28.20;99.90
25504;DHT22;13410;52.114;5.718;2022-08-04T16:29:35;27.80;99.90
25504;DHT22;13410;52.114;5.718;2022-08-04T16:34:45;27.80;99.90
25504;DHT22;13410;52.114;5.718;2022-08-04T16:37:15;27.70;99.90
25504;DHT22;13410;52.114;5.718;2022-08-04T16:39:42;27.80;99.90
25504;DHT22;13410;52.114;5.718;2022-08-04T16:42:28;28.20;99.90
25504;DHT22;13410;52.114;5.718;2022-08-04T16:50:22;27.70;99.90
25504;DHT22;13410;52.114;5.718;2022-08-04T16:52:51;27.70;99.90
25504;DHT22;13410;52.114;5.718;2022-08-04T16:55:18;27.70;99.90
25504;DHT22;13410;52.114;5.718;2022-08-04T16:57:48;27.90;99.90
25504;DHT22;13410;52.114;5.718;2022-08-04T17:00:15;27.80;99.90
25504;DHT22;13410;52.114;5.718;2022-08-04T17:02:42;27.80;99.90
25504;DHT22;13410;52.114;5.718;2022-08-04T17:05:26;27.70;99.90
25504;DHT22;13410;52.114;5.718;2022-08-04T17:07:53;27.50;99.90
25504;DHT22;13410;52.114;5.718;2022-08-04T17:10:33;27.40;99.90
25504;DHT22;13410;52.114;5.718;2022-08-04T17:12:59;27.30;99.90
25504;DHT22;13410;52.114;5.718;2022-08-04T17:15:25;27.30;99.90
25504;DHT22;13410;52.114;5.718;2022-08-04T17:17:51;26.80;99.90
25504;DHT22;13410;52.114;5.718;2022-08-04T17:20:17;26.60;99.90
25504;DHT22;13410;52.114;5.718;2022-08-04T17:22:50;26.60;99.90
25504;DHT22;13410;52.114;5.718;2022-08-04T17:25:16;26.60;99.90
25504;DHT22;13410;52.114;5.718;2022-08-04T17:27:42;26.50;99.90
25504;DHT22;13410;52.114;5.718;2022-08-04T17:30:25;26.40;99.90
25504;DHT22;13410;52.114;5.718;2022-08-04T17:32:51;26.10;99.90
25504;DHT22;13410;52.114;5.718;2022-08-04T17:35:17;26.30;99.90
25504;DHT22;13410;52.114;5.718;2022-08-04T17:37:42;26.30;99.90
25504;DHT22;13410;52.114;5.718;2022-08-04T17:40:09;26.50;99.90
25504;DHT22;13410;52.114;5.718;2022-08-04T17:42:36;26.60;99.90
25504;DHT22;13410;52.114;5.718;2022-08-04T17:45:12;26.20;99.90
25504;DHT22;13410;52.114;5.718;2022-08-04T17:47:50;26.20;99.90
25504;DHT22;13410;52.114;5.718;2022-08-04T17:50:30;26.30;99.90
25504;DHT22;13410;52.114;5.718;2022-08-04T17:53:03;26.10;99.90
25504;DHT22;13410;52.114;5.718;2022-08-04T17:55:46;26.10;99.90
25504;DHT22;13410;52.114;5.718;2022-08-04T17:58:17;25.90;99.90
25504;DHT22;13410;52.114;5.718;2022-08-04T18:00:43;25.90;99.90
25504;DHT22;13410;52.114;5.718;2022-08-04T18:03:21;26.00;99.90
25504;DHT22;13410;52.114;5.718;2022-08-04T18:05:47;25.70;99.90
25504;DHT22;13410;52.114;5.718;2022-08-04T18:08:14;25.80;99.90
25504;DHT22;13410;52.114;5.718;2022-08-04T18:10:41;25.80;99.90
25504;DHT22;13410;52.114;5.718;2022-08-04T18:13:08;25.60;99.90
25504;DHT22;13410;52.114;5.718;2022-08-04T18:15:34;25.90;99.90
25504;DHT22;13410;52.114;5.718;2022-08-04T18:18:19;25.80;99.90
25504;DHT22;13410;52.114;5.718;2022-08-04T18:20:45;25.80;99.90
25504;DHT22;13410;52.114;5.718;2022-08-04T18:23:11;25.40;99.90
25504;DHT22;13410;52.114;5.718;2022-08-04T18:25:38;25.40;99.90
25504;DHT22;13410;52.114;5.718;2022-08-04T18:28:05;25.50;99.90
25504;DHT22;13410;52.114;5.718;2022-08-04T18:30:35;25.60;99.90
25504;DHT22;13410;52.114;5.718;2022-08-04T18:33:02;25.30;99.90
25504;DHT22;13410;52.114;5.718;2022-08-04T18:35:29;25.00;99.90
25504;DHT22;13410;52.114;5.718;2022-08-04T18:37:55;25.00;99.90
25504;DHT22;13410;52.114;5.718;2022-08-04T18:40:21;24.80;99.90
25504;DHT22;13410;52.114;5.718;2022-08-04T18:42:46;24.60;99.90
25504;DHT22;13410;52.114;5.718;2022-08-04T18:45:12;24.70;99.90
25504;DHT22;13410;52.114;5.718;2022-08-04T18:47:47;24.70;99.90
25504;DHT22;13410;52.114;5.718;2022-08-04T18:50:14;24.90;99.90
25504;DHT22;13410;52.114;5.718;2022-08-04T18:52:39;25.20;99.90
25504;DHT22;13410;52.114;5.718;2022-08-04T18:55:05;25.10;99.90
25504;DHT22;13410;52.114;5.718;2022-08-04T18:57:31;24.90;99.90
25504;DHT22;13410;52.114;5.718;2022-08-04T18:59:57;24.70;99.90
25504;DHT22;13410;52.114;5.718;2022-08-04T19:02:23;24.70;99.90
25504;DHT22;13410;52.114;5.718;2022-08-04T19:04:49;24.60;99.90
25504;DHT22;13410;52.114;5.718;2022-08-04T19:07:15;24.70;99.90
25504;DHT22;13410;52.114;5.718;2022-08-04T19:09:42;24.60;99.90
25504;DHT22;13410;52.114;5.718;2022-08-04T19:12:08;24.40;99.90
25504;DHT22;13410;52.114;5.718;2022-08-04T19:14:33;24.50;99.90
25504;DHT22;13410;52.114;5.718;2022-08-04T19:16:59;24.80;99.90
25504;DHT22;13410;52.114;5.718;2022-08-04T19:19:25;25.00;99.90
25504;DHT22;13410;52.114;5.718;2022-08-04T19:21:50;25.30;99.90
25504;DHT22;13410;52.114;5.718;2022-08-04T19:24:16;25.30;99.90
25504;DHT22;13410;52.114;5.718;2022-08-04T19:26:42;25.30;99.90
25504;DHT22;13410;52.114;5.718;2022-08-04T19:29:07;24.90;99.90
25504;DHT22;13410;52.114;5.718;2022-08-04T19:31:33;24.70;99.90
25504;DHT22;13410;52.114;5.718;2022-08-04T19:33:59;24.50;99.90
25504;DHT22;13410;52.114;5.718;2022-08-04T19:36:26;24.60;99.90
25504;DHT22;13410;52.114;5.718;2022-08-04T19:38:52;24.80;99.90
25504;DHT22;13410;52.114;5.718;2022-08-04T19:41:18;24.70;99.90
25504;DHT22;13410;52.114;5.718;2022-08-04T19:43:43;25.00;99.90
25504;DHT22;13410;52.114;5.718;2022-08-04T19:46:13;25.10;99.90
25504;DHT22;13410;52.114;5.718;2022-08-04T19:48:40;24.90;99.90
25504;DHT22;13410;52.114;5.718;2022-08-04T19:51:06;25.10;99.90
25504;DHT22;13410;52.114;5.718;2022-08-04T19:53:31;25.30;99.90
25504;DHT22;13410;52.114;5.718;2022-08-04T19:55:57;25.60;99.90
25504;DHT22;13410;52.114;5.718;2022-08-04T19:58:23;25.90;99.90
25504;DHT22;13410;52.114;5.718;2022-08-04T20:00:49;25.90;99.90
25504;DHT22;13410;52.114;5.718;2022-08-04T20:03:15;26.20;99.90